Time;durP1;ratioP1;P1;durP2;ratioP2;P2;SDS_P1;SDS_P2;PMS_P1;PMS_P2;Temp;Humidity;BMP_temperature;BMP_pressure;BME280_temperature;BME280_humidity;BME280_pressure;Samples;Min_cycle;Max_cycle;Signal;HPM_P1;HPM_P2
2023/06/17 00:00:06;;;;;;;15.88;6.10;;;18.00;99.90;;;;;;5017815;28;20018;-66
2023/06/17 00:02:32;;;;;;;11.40;6.90;;;18.00;99.90;;;;;;5017843;28;20105;-66
2023/06/17 00:04:57;;;;;;;8.90;6.35;;;17.90;99.90;;;;;;5016709;28;20124;-66
2023/06/17 00:07:23;;;;;;;9.43;5.78;;;17.90;99.90;;;;;;5017802;28;20041;-66
2023/06/17 00:09:48;;;;;;;9.02;5.43;;;18.00;99.90;;;;;;5016971;28;20058;-66
2023/06/17 00:12:14;;;;;;;8.45;5.88;;;17.90;99.90;;;;;;5017520;28;20040;-66
2023/06/17 00:14:41;;;;;;;9.85;6.47;;;18.00;99.90;;;;;;5018061;28;20021;-67
2023/06/17 00:17:08;;;;;;;13.05;6.43;;;17.80;99.90;;;;;;5016389;28;20022;-66
2023/06/17 00:19:47;;;;;;;8.07;5.97;;;17.70;99.90;;;;;;5074364;28;20425;-65
2023/06/17 00:22:13;;;;;;;10.43;5.65;;;17.60;99.90;;;;;;5074468;28;20036;-65
2023/06/17 00:24:39;;;;;;;9.93;5.47;;;17.50;99.90;;;;;;5073392;28;20025;-65
2023/06/17 00:27:05;;;;;;;8.40;6.00;;;17.50;99.90;;;;;;5074214;28;20020;-65
2023/06/17 00:29:31;;;;;;;7.90;5.88;;;17.60;99.90;;;;;;5073264;28;20064;-65
2023/06/17 00:31:56;;;;;;;11.90;6.38;;;17.50;99.90;;;;;;5073403;28;20025;-65
2023/06/17 00:34:22;;;;;;;10.70;6.57;;;17.60;99.90;;;;;;5073171;28;20032;-65
2023/06/17 00:36:47;;;;;;;10.95;6.55;;;17.60;99.90;;;;;;5073800;28;20025;-65
2023/06/17 00:39:15;;;;;;;10.88;6.68;;;17.50;99.90;;;;;;5073310;28;20107;-65
2023/06/17 00:41:40;;;;;;;11.32;6.45;;;17.30;99.90;;;;;;5072989;28;20114;-65
2023/06/17 00:44:06;;;;;;;10.27;6.35;;;17.10;99.90;;;;;;5072991;28;20051;-65
2023/06/17 00:46:38;;;;;;;10.57;6.47;;;17.00;99.90;;;;;;5072913;28;20121;-65
2023/06/17 00:49:05;;;;;;;11.55;8.32;;;17.10;99.90;;;;;;5072846;28;20031;-65
2023/06/17 00:51:32;;;;;;;17.77;10.60;;;16.90;99.90;;;;;;5073216;28;20021;-65
2023/06/17 00:53:58;;;;;;;16.52;8.13;;;16.70;99.90;;;;;;5072803;28;20116;-65
2023/06/17 00:56:26;;;;;;;12.82;7.70;;;16.60;99.90;;;;;;5073065;28;20020;-65
2023/06/17 00:58:53;;;;;;;10.50;7.60;;;16.60;99.90;;;;;;5072530;28;20052;-65
2023/06/17 01:01:19;;;;;;;14.95;7.50;;;16.80;99.90;;;;;;5072809;28;20036;-66
2023/06/17 01:03:45;;;;;;;11.15;6.57;;;16.90;99.90;;;;;;5073868;28;20013;-66
2023/06/17 01:06:17;;;;;;;10.07;5.82;;;16.80;99.90;;;;;;5073454;28;20025;-66
2023/06/17 01:08:58;;;;;;;8.25;5.90;;;16.90;99.90;;;;;;5072607;28;20031;-66
2023/06/17 01:11:25;;;;;;;10.75;6.20;;;16.90;99.90;;;;;;5073133;28;20029;-66
2023/06/17 01:13:55;;;;;;;11.50;6.97;;;16.80;99.90;;;;;;5072279;28;20033;-66
2023/06/17 01:16:21;;;;;;;10.23;6.28;;;16.70;99.90;;;;;;5072296;28;20032;-66
2023/06/17 01:18:48;;;;;;;10.95;6.63;;;16.70;99.90;;;;;;5072793;28;20037;-66
2023/06/17 01:21:17;;;;;;;10.18;6.43;;;16.70;99.90;;;;;;5073126;28;20021;-66
2023/06/17 01:23:42;;;;;;;9.88;6.43;;;16.80;99.90;;;;;;5072009;28;20021;-66
2023/06/17 01:26:08;;;;;;;9.93;6.40;;;16.90;99.90;;;;;;5072099;28;20024;-66
2023/06/17 01:28:40;;;;;;;11.65;6.50;;;16.80;99.90;;;;;;5072674;28;20021;-66
2023/06/17 01:31:08;;;;;;;12.45;6.85;;;16.70;99.90;;;;;;5076872;22;20013;-69
2023/06/17 01:33:34;;;;;;;9.80;6.20;;;16.70;99.90;;;;;;5020248;28;20026;-69
2023/06/17 01:36:12;;;;;;;9.50;6.13;;;16.70;99.90;;;;;;5035446;28;20026;-69
2023/06/17 01:38:48;;;;;;;10.50;5.82;;;16.60;99.90;;;;;;5018962;28;20033;-69
2023/06/17 01:41:21;;;;;;;11.45;6.68;;;16.60;99.90;;;;;;5020152;28;20018;-69
2023/06/17 01:43:49;;;;;;;11.15;6.40;;;16.40;99.90;;;;;;5019914;28;20022;-69
2023/06/17 01:46:16;;;;;;;14.18;6.80;;;16.40;99.90;;;;;;5018809;28;20032;-68
2023/06/17 01:48:42;;;;;;;12.32;6.70;;;16.20;99.90;;;;;;5018686;28;20018;-69
2023/06/17 01:51:08;;;;;;;10.13;6.40;;;16.20;99.90;;;;;;5019690;28;20101;-69
2023/06/17 01:53:34;;;;;;;8.18;5.88;;;16.30;99.90;;;;;;5019198;28;20072;-69
2023/06/17 01:55:59;;;;;;;12.50;6.00;;;16.30;99.90;;;;;;5019850;28;20053;-69
2023/06/17 01:58:25;;;;;;;10.18;6.85;;;16.20;99.90;;;;;;5018608;28;20030;-69
2023/06/17 02:00:51;;;;;;;10.98;6.47;;;16.20;99.90;;;;;;5018588;28;20026;-69
2023/06/17 02:03:17;;;;;;;11.88;7.00;;;16.30;99.90;;;;;;5018557;28;20026;-69
2023/06/17 02:05:43;;;;;;;8.93;6.78;;;16.40;99.90;;;;;;5019546;28;20018;-69
2023/06/17 02:08:09;;;;;;;10.20;7.20;;;16.20;99.90;;;;;;5018381;28;20030;-69
2023/06/17 02:10:35;;;;;;;10.20;6.90;;;16.30;99.90;;;;;;5019322;28;20018;-69
2023/06/17 02:13:05;;;;;;;8.13;6.20;;;16.30;99.90;;;;;;5018635;28;20057;-69
2023/06/17 02:15:31;;;;;;;9.30;6.30;;;16.20;99.90;;;;;;5019524;28;20022;-69
2023/06/17 02:17:56;;;;;;;11.88;6.40;;;16.30;99.90;;;;;;5018468;28;20037;-68
2023/06/17 02:20:22;;;;;;;10.23;6.72;;;16.20;99.90;;;;;;5018956;28;20018;-68
2023/06/17 02:22:49;;;;;;;10.52;6.78;;;16.20;99.90;;;;;;5018187;28;20061;-67
2023/06/17 02:25:14;;;;;;;8.05;5.78;;;16.20;99.90;;;;;;5018054;28;20033;-67
2023/06/17 02:27:40;;;;;;;8.55;5.82;;;16.20;99.90;;;;;;5018192;28;20026;-67
2023/06/17 02:30:08;;;;;;;9.80;6.35;;;16.30;99.90;;;;;;5018206;28;20018;-68
2023/06/17 02:32:34;;;;;;;10.68;5.93;;;16.30;99.90;;;;;;5018626;28;20033;-68
2023/06/17 02:34:59;;;;;;;10.35;6.18;;;16.30;99.90;;;;;;5018082;28;20022;-67
2023/06/17 02:37:25;;;;;;;8.70;6.03;;;16.40;99.90;;;;;;5017831;28;20018;-67
2023/06/17 02:39:51;;;;;;;9.25;5.97;;;16.40;99.90;;;;;;5018117;28;20037;-67
2023/06/17 02:42:17;;;;;;;7.72;5.97;;;16.30;99.90;;;;;;5016630;28;20018;-68
2023/06/17 02:44:42;;;;;;;14.88;6.55;;;16.30;99.90;;;;;;5018543;28;20076;-68
2023/06/17 02:47:08;;;;;;;9.73;5.90;;;16.30;99.90;;;;;;5018177;28;20335;-67
2023/06/17 02:49:33;;;;;;;11.13;5.78;;;16.40;99.90;;;;;;5018633;28;20038;-67
2023/06/17 02:51:59;;;;;;;7.65;5.80;;;16.40;99.90;;;;;;5017723;28;20040;-67
2023/06/17 02:54:24;;;;;;;8.63;6.03;;;16.50;99.90;;;;;;5018016;28;20052;-67
2023/06/17 02:56:50;;;;;;;10.07;5.90;;;16.40;99.90;;;;;;5017492;28;20022;-67
2023/06/17 02:59:15;;;;;;;9.85;6.03;;;16.10;99.90;;;;;;5017648;28;20093;-67
2023/06/17 03:01:42;;;;;;;10.82;6.95;;;16.00;99.90;;;;;;5018348;28;20026;-68
2023/06/17 03:04:12;;;;;;;12.85;6.85;;;16.00;99.90;;;;;;5018285;28;20096;-67
2023/06/17 03:06:41;;;;;;;14.30;7.15;;;15.90;99.90;;;;;;5018506;28;20026;-67
2023/06/17 03:09:11;;;;;;;13.80;6.47;;;15.90;99.90;;;;;;5018029;28;20022;-67
2023/06/17 03:11:37;;;;;;;9.65;6.00;;;16.10;99.90;;;;;;5017888;28;20030;-68
2023/06/17 03:14:03;;;;;;;13.27;7.00;;;16.10;99.90;;;;;;5017816;28;20188;-67
2023/06/17 03:16:33;;;;;;;14.00;6.85;;;16.20;99.90;;;;;;5018190;28;20053;-68
2023/06/17 03:19:01;;;;;;;10.17;6.20;;;16.10;99.90;;;;;;5017231;28;20057;-67
2023/06/17 03:21:29;;;;;;;10.20;6.80;;;16.10;99.90;;;;;;5017420;28;20363;-67
2023/06/17 03:23:58;;;;;;;10.32;6.25;;;15.90;99.90;;;;;;5017197;28;20026;-67
2023/06/17 03:26:24;;;;;;;9.50;6.38;;;15.80;99.90;;;;;;5017089;28;20108;-67
2023/06/17 03:28:50;;;;;;;8.63;6.18;;;15.90;99.90;;;;;;5016959;28;20061;-67
2023/06/17 03:31:20;;;;;;;11.55;6.00;;;15.70;99.90;;;;;;5017698;28;20049;-67
2023/06/17 03:33:50;;;;;;;10.20;6.68;;;15.50;99.90;;;;;;5017854;28;20040;-67
2023/06/17 03:36:21;;;;;;;9.18;6.55;;;15.40;99.90;;;;;;5016935;28;20022;-68
2023/06/17 03:38:47;;;;;;;10.63;6.47;;;15.50;99.90;;;;;;5017458;28;20029;-67
2023/06/17 03:41:12;;;;;;;11.27;7.20;;;15.40;99.90;;;;;;5016725;28;20030;-68
2023/06/17 03:43:38;;;;;;;13.02;7.10;;;15.40;99.90;;;;;;5016765;28;20022;-68
2023/06/17 03:46:04;;;;;;;9.13;5.82;;;15.60;99.90;;;;;;5017830;28;20075;-67
2023/06/17 03:48:29;;;;;;;18.15;7.05;;;15.60;99.90;;;;;;5017000;28;20026;-67
2023/06/17 03:50:56;;;;;;;11.07;6.60;;;15.60;99.90;;;;;;5016598;28;20034;-67
2023/06/17 03:53:21;;;;;;;8.80;6.20;;;15.50;99.90;;;;;;5017497;28;20022;-67
2023/06/17 03:55:47;;;;;;;11.65;6.50;;;15.60;99.90;;;;;;5016888;28;20026;-68
2023/06/17 03:58:14;;;;;;;9.50;6.22;;;15.60;99.90;;;;;;5017457;28;20037;-67
2023/06/17 04:00:41;;;;;;;13.32;6.82;;;15.40;99.90;;;;;;5016535;28;20116;-67
2023/06/17 04:03:06;;;;;;;12.95;6.57;;;15.40;99.90;;;;;;5016704;28;20018;-67
2023/06/17 04:05:33;;;;;;;13.68;6.43;;;15.40;99.90;;;;;;5016774;28;20025;-67
2023/06/17 04:07:59;;;;;;;8.32;6.00;;;15.50;99.90;;;;;;5016748;28;20034;-67
2023/06/17 04:10:26;;;;;;;23.15;6.95;;;15.40;99.90;;;;;;5016335;28;20060;-67
2023/06/17 04:12:51;;;;;;;10.35;6.32;;;15.40;99.90;;;;;;5016405;28;20064;-67
2023/06/17 04:15:17;;;;;;;9.82;5.75;;;15.20;99.90;;;;;;5016288;28;20053;-67
2023/06/17 04:17:42;;;;;;;11.15;6.38;;;15.20;99.90;;;;;;5016844;28;20022;-67
2023/06/17 04:20:12;;;;;;;10.27;6.63;;;15.00;99.90;;;;;;5016284;28;20040;-67
2023/06/17 04:22:41;;;;;;;11.25;6.35;;;15.00;99.90;;;;;;5016634;28;20113;-67
2023/06/17 04:25:08;;;;;;;10.43;6.10;;;15.00;99.90;;;;;;5016721;28;20029;-67
2023/06/17 04:27:36;;;;;;;10.65;6.70;;;15.10;99.90;;;;;;5016206;28;20026;-67
2023/06/17 04:30:03;;;;;;;10.40;5.90;;;15.10;99.90;;;;;;5017140;28;20149;-67
2023/06/17 04:32:29;;;;;;;15.77;7.32;;;15.20;99.90;;;;;;5015940;28;20038;-67
2023/06/17 04:34:55;;;;;;;10.02;5.68;;;15.30;99.90;;;;;;5016300;28;20037;-67
2023/06/17 04:37:20;;;;;;;8.60;6.07;;;15.40;99.90;;;;;;5017492;28;20026;-67
2023/06/17 04:39:46;;;;;;;9.38;6.22;;;15.70;99.90;;;;;;5016004;28;20187;-67
2023/06/17 04:42:16;;;;;;;10.95;6.35;;;15.90;99.90;;;;;;5015978;28;20022;-68
2023/06/17 04:44:42;;;;;;;12.13;6.32;;;15.80;99.90;;;;;;5017197;28;20014;-68
2023/06/17 04:47:10;;;;;;;11.07;6.47;;;15.80;99.90;;;;;;5016134;28;20080;-67
2023/06/17 04:49:41;;;;;;;11.70;7.05;;;15.80;99.90;;;;;;5016977;28;20076;-67
2023/06/17 04:52:13;;;;;;;13.63;6.78;;;15.90;99.90;;;;;;5016479;28;20053;-67
2023/06/17 04:54:39;;;;;;;16.13;7.40;;;15.80;99.90;;;;;;5016119;28;20058;-67
2023/06/17 04:57:05;;;;;;;13.85;7.10;;;15.90;99.90;;;;;;5016462;28;20022;-67
2023/06/17 04:59:31;;;;;;;10.70;6.22;;;16.10;99.90;;;;;;5016129;28;20026;-67
2023/06/17 05:01:57;;;;;;;11.32;6.68;;;16.30;99.90;;;;;;5015891;28;20139;-68
2023/06/17 05:04:22;;;;;;;10.57;7.15;;;16.30;99.90;;;;;;5017032;28;20029;-67
2023/06/17 05:06:48;;;;;;;12.98;7.18;;;16.30;99.90;;;;;;5019759;28;20026;-67
2023/06/17 05:09:14;;;;;;;13.68;7.28;;;16.50;99.90;;;;;;5020257;28;20029;-67
2023/06/17 05:11:40;;;;;;;13.70;7.35;;;16.40;99.90;;;;;;5019513;28;20061;-67
2023/06/17 05:14:06;;;;;;;11.73;7.00;;;16.50;99.90;;;;;;5020210;28;20087;-68
2023/06/17 05:16:32;;;;;;;13.43;7.75;;;16.50;99.90;;;;;;5019441;28;20121;-67
2023/06/17 05:18:58;;;;;;;10.52;6.90;;;16.70;99.90;;;;;;5020348;28;20026;-68
2023/06/17 05:21:23;;;;;;;11.70;7.43;;;16.80;99.90;;;;;;5019291;28;20085;-68
2023/06/17 05:23:50;;;;;;;12.02;6.97;;;17.10;99.90;;;;;;5019474;28;20022;-68
2023/06/17 05:26:15;;;;;;;13.40;7.22;;;17.20;99.90;;;;;;5019579;28;20022;-68
2023/06/17 05:28:41;;;;;;;12.45;7.28;;;17.10;99.90;;;;;;5019099;28;20032;-68
2023/06/17 05:31:06;;;;;;;12.13;7.68;;;17.10;99.90;;;;;;5019035;28;20029;-67
2023/06/17 05:33:32;;;;;;;14.63;7.32;;;17.00;99.90;;;;;;5020274;28;20042;-68
2023/06/17 05:36:00;;;;;;;12.23;7.88;;;17.00;99.90;;;;;;5019352;28;20026;-67
2023/06/17 05:38:27;;;;;;;12.55;6.70;;;17.20;99.90;;;;;;5019074;28;20044;-67
2023/06/17 05:40:52;;;;;;;11.35;7.35;;;17.20;99.90;;;;;;5019715;28;20022;-67
2023/06/17 05:43:18;;;;;;;9.50;5.88;;;17.30;99.90;;;;;;5019950;28;20024;-67
2023/06/17 05:45:44;;;;;;;12.15;6.10;;;17.40;99.90;;;;;;5018975;28;20028;-68
2023/06/17 05:48:10;;;;;;;8.82;5.97;;;17.50;99.90;;;;;;5019230;28;20033;-68
2023/06/17 05:50:35;;;;;;;10.57;5.70;;;17.50;99.90;;;;;;5018672;28;20022;-67
2023/06/17 05:53:01;;;;;;;9.48;5.32;;;17.70;99.90;;;;;;5019025;28;20022;-67
2023/06/17 05:55:26;;;;;;;7.28;5.07;;;17.80;99.90;;;;;;5018803;28;20026;-67
2023/06/17 05:57:52;;;;;;;8.27;5.30;;;17.90;99.90;;;;;;5019538;28;20049;-68
2023/06/17 06:00:18;;;;;;;8.55;5.38;;;18.00;99.90;;;;;;5018639;28;20072;-67
2023/06/17 06:02:44;;;;;;;5.75;4.28;;;17.90;99.90;;;;;;5019407;28;20068;-68
2023/06/17 06:05:10;;;;;;;8.18;5.50;;;18.00;99.90;;;;;;5019535;28;20030;-68
2023/06/17 06:07:36;;;;;;;7.75;5.63;;;18.00;99.90;;;;;;5018571;28;20121;-68
2023/06/17 06:10:03;;;;;;;8.23;4.78;;;18.10;99.90;;;;;;5018354;28;20022;-67
2023/06/17 06:12:30;;;;;;;10.85;5.20;;;17.90;99.90;;;;;;5018453;28;20026;-68
2023/06/17 06:14:57;;;;;;;10.20;5.72;;;17.80;99.90;;;;;;5018487;28;20018;-68
2023/06/17 06:17:23;;;;;;;7.15;5.45;;;17.70;99.90;;;;;;5019342;28;20045;-68
2023/06/17 06:19:49;;;;;;;8.32;5.47;;;17.90;99.90;;;;;;5018138;28;20030;-67
2023/06/17 06:22:14;;;;;;;8.77;5.30;;;18.00;99.90;;;;;;5018147;28;20144;-68
2023/06/17 06:24:40;;;;;;;9.93;5.15;;;18.20;99.90;;;;;;5018333;28;20064;-68
2023/06/17 06:27:06;;;;;;;7.95;4.53;;;18.20;99.90;;;;;;5019256;28;20033;-68
2023/06/17 06:29:31;;;;;;;8.82;5.57;;;18.40;99.90;;;;;;5018000;28;20018;-68
2023/06/17 06:31:57;;;;;;;9.75;5.35;;;18.30;99.90;;;;;;5018854;28;20042;-68
2023/06/17 06:34:22;;;;;;;10.07;5.53;;;18.30;99.90;;;;;;5018030;28;20034;-67
2023/06/17 06:36:48;;;;;;;7.10;4.70;;;18.10;99.90;;;;;;5017995;28;20029;-68
2023/06/17 06:39:13;;;;;;;11.73;6.43;;;18.30;99.90;;;;;;5018606;28;20034;-68
2023/06/17 06:41:39;;;;;;;7.95;5.40;;;18.50;99.90;;;;;;5018188;28;20017;-67
2023/06/17 06:44:04;;;;;;;8.60;4.70;;;18.70;99.90;;;;;;5018143;28;20050;-68
2023/06/17 06:46:31;;;;;;;7.38;4.43;;;18.90;99.90;;;;;;5017968;28;20022;-68
2023/06/17 06:48:57;;;;;;;7.03;5.07;;;19.00;99.90;;;;;;5018371;28;20082;-68
2023/06/17 06:51:23;;;;;;;12.90;5.80;;;18.90;99.90;;;;;;5018128;28;20076;-68
2023/06/17 06:53:48;;;;;;;7.38;5.07;;;18.70;99.90;;;;;;5017622;28;20113;-68
2023/06/17 06:56:14;;;;;;;7.85;5.38;;;18.50;99.90;;;;;;5018256;28;20044;-68
2023/06/17 06:58:40;;;;;;;9.23;5.50;;;18.60;99.90;;;;;;5018341;28;20051;-67
2023/06/17 07:01:05;;;;;;;6.68;4.78;;;18.70;99.90;;;;;;5017321;28;20076;-68
2023/06/17 07:03:32;;;;;;;7.22;5.18;;;18.80;99.90;;;;;;5017467;28;20018;-68
2023/06/17 07:05:57;;;;;;;7.45;5.10;;;19.10;99.90;;;;;;5018658;28;20022;-68
2023/06/17 07:08:24;;;;;;;13.88;6.15;;;19.30;99.90;;;;;;5018562;28;20026;-69
2023/06/17 07:10:50;;;;;;;8.30;5.22;;;19.40;99.90;;;;;;5017259;28;20037;-68
2023/06/17 07:13:17;;;;;;;11.77;5.18;;;19.40;99.90;;;;;;5017855;28;20060;-68
2023/06/17 07:15:43;;;;;;;7.28;4.78;;;19.60;99.90;;;;;;5017165;28;20032;-68
2023/06/17 07:18:10;;;;;;;6.93;5.10;;;19.60;99.90;;;;;;5018070;28;20079;-68
2023/06/17 07:20:35;;;;;;;10.88;5.32;;;19.70;99.90;;;;;;5017070;28;20037;-68
2023/06/17 07:23:01;;;;;;;8.20;5.40;;;19.80;99.90;;;;;;5018248;28;20022;-68
2023/06/17 07:25:26;;;;;;;8.80;4.78;;;19.80;99.90;;;;;;5017435;28;20029;-67
2023/06/17 07:27:56;;;;;;;7.13;4.45;;;19.90;99.90;;;;;;5017572;28;20022;-67
2023/06/17 07:30:22;;;;;;;12.90;4.78;;;19.90;99.90;;;;;;5017907;28;20022;-68
2023/06/17 07:32:47;;;;;;;14.07;4.93;;;20.20;99.90;;;;;;5017197;28;20040;-68
2023/06/17 07:35:13;;;;;;;9.18;4.45;;;20.40;99.90;;;;;;5019683;28;20120;-68
2023/06/17 07:37:39;;;;;;;6.60;4.75;;;20.50;99.90;;;;;;5016724;28;20088;-68
2023/06/17 07:40:06;;;;;;;6.72;4.70;;;20.70;99.90;;;;;;5016867;28;20022;-68
2023/06/17 07:42:31;;;;;;;8.15;4.53;;;20.80;99.90;;;;;;5016611;28;20032;-67
2023/06/17 07:44:57;;;;;;;6.28;4.38;;;20.90;99.90;;;;;;5016722;28;20022;-68
2023/06/17 07:47:23;;;;;;;5.32;3.97;;;21.10;99.90;;;;;;5017209;28;20032;-68
2023/06/17 07:49:49;;;;;;;8.40;4.78;;;21.10;99.90;;;;;;5017716;28;20026;-68
2023/06/17 07:52:14;;;;;;;8.88;4.15;;;21.20;99.90;;;;;;5016749;28;20029;-68
2023/06/17 07:54:41;;;;;;;5.60;4.47;;;21.10;99.90;;;;;;5016812;28;20026;-68
2023/06/17 07:57:06;;;;;;;4.35;3.80;;;21.30;99.90;;;;;;5017613;28;20029;-68
2023/06/17 07:59:32;;;;;;;6.97;4.13;;;21.50;99.90;;;;;;5016560;28;20022;-68
2023/06/17 08:01:58;;;;;;;5.95;4.25;;;21.70;99.90;;;;;;5016642;28;20026;-68
2023/06/17 08:04:24;;;;;;;5.20;4.05;;;21.80;99.90;;;;;;5016474;28;20028;-67
2023/06/17 08:06:49;;;;;;;10.50;4.60;;;21.90;99.90;;;;;;5000531;28;20030;-69
2023/06/17 08:09:15;;;;;;;12.75;4.63;;;22.00;99.90;;;;;;5016456;28;20080;-69
2023/06/17 08:11:41;;;;;;;6.63;4.10;;;22.10;99.90;;;;;;5016298;28;20033;-69
2023/06/17 08:14:06;;;;;;;6.63;4.60;;;22.20;99.90;;;;;;5016575;28;20026;-69
2023/06/17 08:16:32;;;;;;;7.75;4.13;;;22.30;99.90;;;;;;5017347;28;20026;-69
2023/06/17 08:18:57;;;;;;;7.38;4.68;;;22.40;99.90;;;;;;5016368;28;20029;-69
2023/06/17 08:21:23;;;;;;;5.35;4.10;;;22.50;99.90;;;;;;5016649;28;20096;-69
2023/06/17 08:23:51;;;;;;;8.25;4.30;;;22.60;99.90;;;;;;5017136;28;20030;-69
2023/06/17 08:26:17;;;;;;;5.00;3.83;;;22.60;99.90;;;;;;5016213;28;20088;-69
2023/06/17 08:28:42;;;;;;;9.40;4.38;;;22.60;99.90;;;;;;5016410;28;20026;-69
2023/06/17 08:31:08;;;;;;;6.22;4.30;;;22.80;99.90;;;;;;5016275;28;20026;-69
2023/06/17 08:33:34;;;;;;;7.90;4.20;;;22.90;99.90;;;;;;5017146;28;20030;-69
2023/06/17 08:35:59;;;;;;;7.47;4.13;;;23.00;99.90;;;;;;5016359;28;20034;-69
2023/06/17 08:38:25;;;;;;;7.68;3.90;;;23.20;99.90;;;;;;5016058;28;20033;-69
2023/06/17 08:40:51;;;;;;;5.65;4.45;;;23.20;99.90;;;;;;5019184;28;20021;-69
2023/06/17 08:43:20;;;;;;;5.97;3.80;;;23.40;99.90;;;;;;5020380;28;20018;-69
2023/06/17 08:45:49;;;;;;;5.95;3.88;;;23.50;99.90;;;;;;5020535;28;20018;-69
2023/06/17 08:48:16;;;;;;;5.28;3.35;;;23.60;99.90;;;;;;5020601;28;20069;-69
2023/06/17 08:50:41;;;;;;;6.53;3.92;;;23.70;99.90;;;;;;5020286;28;20022;-69
2023/06/17 08:53:08;;;;;;;6.78;3.47;;;23.90;99.90;;;;;;5020153;28;20048;-69
2023/06/17 08:55:34;;;;;;;4.35;3.33;;;24.00;98.60;;;;;;5019837;28;20061;-69
2023/06/17 08:58:01;;;;;;;6.82;3.83;;;23.90;97.50;;;;;;5019948;28;20121;-69
2023/06/17 09:00:26;;;;;;;6.00;3.65;;;23.90;96.10;;;;;;5020682;28;20022;-69
2023/06/17 09:02:56;;;;;;;7.03;3.70;;;23.80;95.80;;;;;;5019759;28;20097;-69
2023/06/17 09:05:22;;;;;;;4.80;3.63;;;23.90;95.10;;;;;;5019708;28;20021;-69
2023/06/17 09:07:47;;;;;;;6.68;3.70;;;24.10;94.90;;;;;;5019940;28;20025;-69
2023/06/17 09:10:15;;;;;;;6.10;3.60;;;24.40;95.20;;;;;;5019523;28;20107;-69
2023/06/17 09:12:41;;;;;;;4.38;2.88;;;24.40;92.70;;;;;;5019769;28;20029;-69
2023/06/17 09:15:08;;;;;;;5.60;3.22;;;24.70;91.50;;;;;;5019856;28;20022;-69
2023/06/17 09:17:36;;;;;;;4.82;3.33;;;24.70;91.50;;;;;;5019846;28;20017;-69
2023/06/17 09:20:12;;;;;;;7.95;4.28;;;24.70;91.50;;;;;;5019806;28;20030;-69
2023/06/17 09:22:41;;;;;;;13.52;3.15;;;24.70;90.40;;;;;;5019248;28;20090;-69
2023/06/17 09:25:12;;;;;;;4.50;3.38;;;24.80;90.00;;;;;;5019708;28;20018;-69
2023/06/17 09:27:50;;;;;;;8.15;3.67;;;24.90;91.00;;;;;;5019511;28;20026;-69
2023/06/17 09:30:16;;;;;;;5.80;3.58;;;25.00;88.30;;;;;;5020247;28;20029;-69
2023/06/17 09:32:43;;;;;;;5.63;3.30;;;25.20;87.10;;;;;;5019090;28;20030;-69
2023/06/17 09:35:16;;;;;;;6.78;3.30;;;25.20;86.50;;;;;;5019412;28;20076;-69
2023/06/17 09:37:55;;;;;;;5.10;2.95;;;25.10;87.50;;;;;;5019816;28;20025;-69
2023/06/17 09:40:26;;;;;;;4.50;3.00;;;25.00;86.20;;;;;;5019863;28;20021;-69
2023/06/17 09:42:52;;;;;;;4.78;3.40;;;24.90;82.90;;;;;;5019185;28;20114;-69
2023/06/17 09:45:23;;;;;;;6.68;3.55;;;24.90;85.10;;;;;;5019408;28;20057;-69
2023/06/17 09:47:53;;;;;;;;;;;24.90;83.90;;;;;;5019708;28;20050;-69
2023/06/17 09:50:24;;;;;;;6.32;3.42;;;25.00;82.20;;;;;;5018665;28;19905;-69
2023/06/17 09:52:55;;;;;;;6.80;3.08;;;25.10;81.20;;;;;;5019707;28;20022;-69
2023/06/17 09:55:22;;;;;;;7.28;3.17;;;25.30;81.30;;;;;;5018662;28;20026;-69
2023/06/17 09:57:53;;;;;;;3.78;2.90;;;25.30;82.30;;;;;;5018648;28;20056;-70
2023/06/17 10:00:21;;;;;;;6.78;3.58;;;25.40;80.70;;;;;;5018909;28;20033;-69
2023/06/17 10:02:46;;;;;;;3.38;2.83;;;25.60;76.60;;;;;;5019414;28;20029;-69
2023/06/17 10:05:12;;;;;;;4.85;3.08;;;25.70;77.20;;;;;;5019150;28;20022;-69
2023/06/17 10:07:40;;;;;;;5.25;3.15;;;25.70;76.50;;;;;;5018835;28;20104;-69
2023/06/17 10:10:09;;;;;;;5.18;3.08;;;25.60;76.20;;;;;;5019378;28;20080;-69
2023/06/17 10:12:36;;;;;;;6.05;3.80;;;25.70;74.60;;;;;;5019196;28;20030;-69
2023/06/17 10:15:03;;;;;;;8.15;3.50;;;25.80;73.40;;;;;;5018594;28;20030;-69
2023/06/17 10:17:31;;;;;;;6.30;3.25;;;26.40;75.10;;;;;;5018712;28;20033;-69
2023/06/17 10:19:58;;;;;;;5.63;3.17;;;26.40;75.40;;;;;;5018273;28;20116;-69
2023/06/17 10:22:25;;;;;;;6.60;3.42;;;26.50;77.20;;;;;;5018631;28;20018;-69
2023/06/17 10:24:51;;;;;;;5.93;3.22;;;26.50;74.60;;;;;;5018550;28;20026;-70
2023/06/17 10:27:20;;;;;;;15.70;3.40;;;26.80;75.30;;;;;;5018152;28;20079;-69
2023/06/17 10:29:48;;;;;;;6.22;3.30;;;27.20;72.60;;;;;;5017992;28;20029;-69
2023/06/17 10:32:22;;;;;;;5.10;3.03;;;27.50;70.80;;;;;;5018182;28;20034;-68
2023/06/17 10:35:06;;;;;;;5.60;3.50;;;27.70;70.80;;;;;;5018158;28;20034;-68
2023/06/17 10:37:38;;;;;;;3.83;3.42;;;28.00;66.70;;;;;;5018491;28;20033;-68
2023/06/17 10:40:23;;;;;;;5.47;3.55;;;28.30;65.60;;;;;;5018546;28;20026;-68
2023/06/17 10:43:13;;;;;;;4.43;3.42;;;28.50;66.70;;;;;;5017704;28;20018;-68
2023/06/17 10:45:51;;;;;;;5.30;3.10;;;28.90;66.20;;;;;;5010046;28;20067;-68
2023/06/17 10:48:24;;;;;;;7.07;4.07;;;29.10;64.60;;;;;;5018634;28;20085;-68
2023/06/17 10:51:03;;;;;;;4.00;3.58;;;28.90;65.80;;;;;;5017762;28;20030;-68
2023/06/17 10:53:36;;;;;;;7.97;4.20;;;29.00;66.10;;;;;;5018481;28;20050;-68
2023/06/17 10:56:03;;;;;;;3.80;3.25;;;28.90;63.90;;;;;;5018658;28;20037;-68
2023/06/17 10:58:36;;;;;;;6.18;3.63;;;29.80;61.40;;;;;;5018177;28;20022;-68
2023/06/17 11:01:04;;;;;;;6.85;4.25;;;30.20;60.40;;;;;;5017930;28;20031;-68
2023/06/17 11:03:31;;;;;;;7.45;4.50;;;30.70;59.50;;;;;;5016597;28;20052;-68
2023/06/17 11:06:07;;;;;;;4.40;3.70;;;30.70;57.30;;;;;;5017668;28;20025;-68
2023/06/17 11:08:35;;;;;;;7.13;3.20;;;31.10;57.00;;;;;;5017317;28;20033;-68
2023/06/17 11:11:11;;;;;;;3.97;3.53;;;30.80;59.90;;;;;;5017619;28;20036;-68
2023/06/17 11:13:47;;;;;;;5.95;4.55;;;30.60;57.70;;;;;;5017345;28;20033;-68
2023/06/17 11:16:13;;;;;;;5.85;3.70;;;30.80;57.00;;;;;;5017769;28;20029;-68
2023/06/17 11:18:41;;;;;;;5.15;4.18;;;31.00;56.60;;;;;;5017495;28;20072;-68
2023/06/17 11:21:08;;;;;;;4.90;3.90;;;31.90;54.20;;;;;;5017376;28;20022;-68
2023/06/17 11:23:35;;;;;;;5.43;3.50;;;32.00;55.30;;;;;;5017405;28;20026;-68
2023/06/17 11:26:02;;;;;;;4.78;3.78;;;31.70;55.10;;;;;;5017120;28;20113;-68
2023/06/17 11:28:30;;;;;;;6.07;3.72;;;32.30;52.40;;;;;;5017385;28;20022;-68
2023/06/17 11:30:56;;;;;;;3.75;3.45;;;33.20;51.20;;;;;;5016930;28;20026;-68
2023/06/17 11:33:22;;;;;;;4.07;3.67;;;33.90;50.60;;;;;;5018155;28;20030;-68
2023/06/17 11:35:49;;;;;;;5.35;4.13;;;32.60;51.70;;;;;;5017255;28;20076;-68
2023/06/17 11:38:16;;;;;;;5.28;4.18;;;32.20;54.00;;;;;;5016687;28;20022;-69
2023/06/17 11:40:42;;;;;;;3.90;3.53;;;32.10;56.00;;;;;;5016899;28;20033;-69
2023/06/17 11:43:09;;;;;;;4.85;3.50;;;31.70;52.80;;;;;;5017168;28;20022;-69
2023/06/17 11:45:35;;;;;;;5.60;3.63;;;32.00;52.90;;;;;;5017019;28;20030;-69
2023/06/17 11:48:05;;;;;;;4.03;3.63;;;33.00;51.40;;;;;;5017566;28;20050;-69
2023/06/17 11:50:30;;;;;;;4.18;3.55;;;33.80;51.30;;;;;;5017612;28;20045;-70
2023/06/17 11:52:59;;;;;;;6.78;3.95;;;34.50;49.80;;;;;;5016615;28;20018;-68
2023/06/17 11:55:34;;;;;;;4.47;3.75;;;34.30;51.90;;;;;;5017773;28;20096;-68
2023/06/17 11:58:02;;;;;;;7.85;4.28;;;33.80;51.40;;;;;;5017430;28;20026;-68
2023/06/17 12:00:28;;;;;;;4.25;3.85;;;33.40;50.70;;;;;;5017043;28;20014;-68
2023/06/17 12:02:57;;;;;;;5.22;4.00;;;32.40;51.20;;;;;;5016461;28;20018;-68
2023/06/17 12:05:27;;;;;;;7.25;3.80;;;33.00;49.70;;;;;;5016605;28;20057;-68
2023/06/17 12:07:53;;;;;;;6.38;4.15;;;33.10;51.70;;;;;;5017414;28;20035;-68
2023/06/17 12:10:19;;;;;;;5.07;3.92;;;32.80;51.00;;;;;;5016322;28;20048;-68
2023/06/17 12:12:46;;;;;;;7.13;4.30;;;32.30;50.70;;;;;;5016344;28;20113;-68
2023/06/17 12:15:12;;;;;;;5.88;3.50;;;32.50;52.10;;;;;;5016245;28;20025;-68
2023/06/17 12:17:40;;;;;;;4.18;3.72;;;32.80;50.90;;;;;;5016529;28;20026;-68
2023/06/17 12:20:15;;;;;;;5.00;3.97;;;31.80;49.50;;;;;;5017237;28;20030;-68
2023/06/17 12:22:41;;;;;;;6.60;3.88;;;31.50;50.20;;;;;;5016586;28;20079;-68
2023/06/17 12:25:07;;;;;;;11.23;3.80;;;32.30;49.50;;;;;;5016483;28;20050;-68
2023/06/17 12:27:33;;;;;;;4.45;3.30;;;32.10;49.60;;;;;;5016188;28;20080;-68
2023/06/17 12:30:00;;;;;;;5.18;3.97;;;31.90;50.10;;;;;;5016587;28;20033;-68
2023/06/17 12:32:27;;;;;;;4.78;3.85;;;32.50;48.40;;;;;;5017030;28;20120;-68
2023/06/17 12:34:53;;;;;;;5.38;3.50;;;32.90;48.70;;;;;;5017214;28;20073;-68
2023/06/17 12:37:23;;;;;;;5.40;3.90;;;32.80;48.50;;;;;;5016282;28;20030;-69
2023/06/17 12:39:49;;;;;;;8.27;4.30;;;32.60;49.20;;;;;;5016110;28;20026;-69
2023/06/17 12:42:15;;;;;;;10.95;3.60;;;32.10;50.20;;;;;;5016172;28;20022;-70